Time;durP1;ratioP1;P1;durP2;ratioP2;P2;SDS_P1;SDS_P2;PMS_P1;PMS_P2;Temp;Humidity;BMP_temperature;BMP_pressure;BME280_temperature;BME280_humidity;BME280_pressure;Samples;Min_cycle;Max_cycle;Signal;HPM_P1;HPM_P2
2021/12/24 00:00:59;;;;;;;25.13;11.48;;;;;;;1.72;89.01;99221.25;5046556;28;20052;-81
2021/12/24 00:03:26;;;;;;;20.90;10.10;;;;;;;1.70;89.17;99217.88;5064111;28;20048;-81
2021/12/24 00:05:52;;;;;;;22.90;10.15;;;;;;;1.78;89.37;99222.66;5027133;28;20041;-81
2021/12/24 00:08:19;;;;;;;23.38;10.65;;;;;;;1.76;89.13;99218.47;5060288;28;20098;-82
2021/12/24 00:10:50;;;;;;;22.38;10.05;;;;;;;1.79;89.53;99215.63;5043711;28;20519;-81
2021/12/24 00:13:18;;;;;;;22.83;10.48;;;;;;;1.83;89.36;99211.88;5043253;28;20112;-81
2021/12/24 00:35:34;;;;;;;20.75;8.85;;;;;;;1.96;89.66;99228.53;5043943;28;20036;-81
2021/12/24 00:38:03;;;;;;;20.55;9.15;;;;;;;1.98;89.49;99226.63;5064044;28;20395;-81
2021/12/24 00:40:32;;;;;;;21.48;9.20;;;;;;;2.02;89.22;99230.75;5047298;28;20048;-81
2021/12/24 00:42:59;;;;;;;19.80;9.13;;;;;;;2.00;89.64;99230.00;5037781;28;20041;-81
2021/12/24 00:45:35;;;;;;;23.67;10.40;;;;;;;1.99;89.40;99230.13;5041578;28;20074;-82
2021/12/24 00:48:04;;;;;;;23.75;10.20;;;;;;;2.02;89.63;99225.50;5046476;28;20041;-81
2021/12/24 00:50:53;;;;;;;21.50;10.15;;;;;;;2.04;89.21;99233.28;5069311;28;20048;-82
2021/12/24 00:56:01;;;;;;;24.02;10.38;;;;;;;2.17;90.07;99221.09;5029778;28;20076;-81
2021/12/24 00:58:29;;;;;;;22.63;10.57;;;;;;;2.21;89.70;99219.09;5051563;28;20048;-81
2021/12/24 01:00:57;;;;;;;16.08;9.05;;;;;;;2.20;89.76;99228.75;5043538;28;20040;-82
2021/12/24 01:03:24;;;;;;;21.00;9.57;;;;;;;2.23;89.95;99225.09;5063047;28;20040;-81
2021/12/24 01:05:52;;;;;;;20.67;9.75;;;;;;;2.26;90.12;99215.25;5065564;28;20041;-81
2021/12/24 01:08:18;;;;;;;21.40;10.57;;;;;;;2.28;90.13;99221.22;5062200;28;20052;-82
2021/12/24 01:10:54;;;;;;;17.88;8.57;;;;;;;2.26;89.71;99207.38;5032140;28;20048;-81
2021/12/24 01:13:20;;;;;;;23.90;10.25;;;;;;;2.28;89.74;99213.38;5047338;28;20048;-81
2021/12/24 01:15:57;;;;;;;16.27;8.80;;;;;;;2.31;89.63;99215.78;5065651;28;20044;-81
2021/12/24 01:18:44;;;;;;;20.75;9.70;;;;;;;2.31;89.70;99222.81;5032911;28;20512;-81
2021/12/24 01:23:50;;;;;;;16.17;8.43;;;;;;;2.30;89.65;99208.03;5056275;28;20048;-81
2021/12/24 01:26:40;;;;;;;17.17;8.73;;;;;;;2.29;89.39;99206.34;5044910;28;20107;-81
2021/12/24 01:40:07;;;;;;;19.02;9.07;;;;;;;2.29;89.10;99208.97;5043914;28;20071;-82
2021/12/24 01:42:47;;;;;;;17.80;8.00;;;;;;;2.28;89.08;99210.75;5055135;28;20076;-81
2021/12/24 01:45:19;;;;;;;20.88;9.57;;;;;;;2.28;89.03;99215.97;5061907;28;20551;-82
2021/12/24 01:47:53;;;;;;;22.63;10.40;;;;;;;2.27;89.56;99216.94;5069059;28;20097;-82
2021/12/24 01:50:20;;;;;;;16.95;8.95;;;;;;;2.28;89.92;99210.75;5065605;28;20131;-81
2021/12/24 01:52:49;;;;;;;15.63;7.55;;;;;;;2.31;89.53;99213.16;5076163;28;20490;-81
2021/12/24 01:55:17;;;;;;;20.23;9.48;;;;;;;2.32;89.39;99214.84;5033173;28;20047;-82
2021/12/24 01:57:44;;;;;;;15.63;7.47;;;;;;;2.35;89.16;99214.66;5066944;28;20040;-81
2021/12/24 02:00:14;;;;;;;20.08;8.95;;;;;;;2.32;89.28;99212.25;5067299;28;20052;-81
2021/12/24 02:02:41;;;;;;;17.05;8.90;;;;;;;2.33;89.54;99199.97;5046081;28;20135;-81
2021/12/24 02:05:09;;;;;;;16.73;8.73;;;;;;;2.36;89.45;99197.16;5050789;28;20048;-82
2021/12/24 02:07:37;;;;;;;22.10;9.40;;;;;;;2.36;89.36;99190.13;5049163;28;20062;-81
2021/12/24 02:10:06;;;;;;;18.80;9.65;;;;;;;2.36;89.49;99186.66;5046335;28;20032;-81
2021/12/24 02:12:34;;;;;;;27.83;9.73;;;;;;;2.38;89.63;99187.41;5056351;28;20040;-81
2021/12/24 02:15:11;;;;;;;19.23;9.75;;;;;;;2.39;89.52;99189.09;5064020;28;20039;-82
2021/12/24 02:28:39;;;;;;;19.27;9.00;;;;;;;2.48;90.14;99177.19;5036201;28;20211;-82
2021/12/24 02:31:10;;;;;;;16.70;7.95;;;;;;;2.50;89.75;99164.81;5048058;28;20055;-81
2021/12/24 02:33:38;;;;;;;19.63;8.57;;;;;;;2.51;89.71;99172.56;5050930;28;20048;-81
2021/12/24 02:36:06;;;;;;;17.38;8.93;;;;;;;2.56;90.05;99161.78;5038741;28;20084;-81
2021/12/24 02:38:32;;;;;;;18.98;8.35;;;;;;;2.57;89.84;99158.22;5062193;28;20509;-81
2021/12/24 02:40:59;;;;;;;19.02;8.38;;;;;;;2.57;89.97;99152.97;5038045;28;20044;-81
2021/12/24 02:43:26;;;;;;;18.92;9.20;;;;;;;2.60;89.85;99144.94;5071417;28;20048;-82
2021/12/24 02:45:57;;;;;;;16.77;9.15;;;;;;;2.60;89.96;99148.38;5054185;28;20049;-82
2021/12/24 02:54:00;;;;;;;17.05;8.48;;;;;;;2.65;89.93;99139.38;4983534;28;20059;-81
2021/12/24 02:56:31;;;;;;;16.58;8.13;;;;;;;2.66;89.74;99136.63;4989229;28;20045;-81
2021/12/24 02:59:11;;;;;;;17.67;8.07;;;;;;;2.66;89.69;99133.19;5020058;28;20119;-81
2021/12/24 03:01:40;;;;;;;15.38;7.85;;;;;;;2.69;90.19;99131.19;4989598;28;20480;-82
2021/12/24 03:04:08;;;;;;;15.93;8.00;;;;;;;2.74;89.95;99128.25;4994980;28;20627;-81
2021/12/24 03:06:42;;;;;;;17.00;7.65;;;;;;;2.72;89.89;99133.63;5025577;28;20166;-81
2021/12/24 03:09:12;;;;;;;19.13;8.63;;;;;;;2.73;90.14;99127.44;4993511;28;20055;-82
2021/12/24 03:11:39;;;;;;;16.10;7.72;;;;;;;2.73;90.17;99127.44;5017364;28;20045;-82
2021/12/24 03:14:08;;;;;;;18.75;7.68;;;;;;;2.77;89.97;99123.66;5026894;28;20045;-81
2021/12/24 03:16:37;;;;;;;15.05;7.68;;;;;;;2.78;90.10;99122.72;5011467;28;20056;-81
2021/12/24 03:19:07;;;;;;;14.63;7.88;;;;;;;2.79;90.18;99128.78;5040692;28;20040;-81
2021/12/24 03:21:45;;;;;;;20.15;8.40;;;;;;;2.81;90.29;99130.38;5056298;28;20049;-81
2021/12/24 03:26:42;;;;;;;18.30;8.20;;;;;;;2.86;90.53;99116.94;5053814;28;20504;-81
2021/12/24 03:29:10;;;;;;;19.58;8.70;;;;;;;2.85;90.49;99109.16;5078343;28;20108;-81
2021/12/24 03:31:38;;;;;;;20.77;8.90;;;;;;;2.86;90.41;99106.47;5041630;28;20033;-81
2021/12/24 03:34:06;;;;;;;16.35;8.27;;;;;;;2.84;90.10;99103.09;5060740;28;20439;-81
2021/12/24 03:36:34;;;;;;;18.20;8.75;;;;;;;2.86;90.14;99092.50;5068615;28;20674;-81
2021/12/24 03:39:05;;;;;;;16.42;8.20;;;;;;;2.86;90.32;99100.38;5059393;28;20048;-81
2021/12/24 03:41:32;;;;;;;18.10;9.55;;;;;;;2.86;90.59;99090.72;5068870;28;20077;-82
2021/12/24 03:43:59;;;;;;;18.67;8.40;;;;;;;2.89;90.70;99092.31;5075998;28;20052;-81
2021/12/24 03:46:45;;;;;;;18.45;8.60;;;;;;;2.93;90.55;99107.72;5057303;28;20483;-81
2021/12/24 03:49:29;;;;;;;14.60;7.60;;;;;;;2.94;90.50;99084.94;5063558;28;20048;-82
2021/12/24 03:52:03;;;;;;;15.70;8.32;;;;;;;2.98;90.66;99082.03;5034515;28;20052;-81
2021/12/24 03:57:16;;;;;;;21.05;9.65;;;;;;;2.97;90.75;99072.47;5053579;28;20121;-81
2021/12/24 04:00:14;;;;;;;17.10;7.80;;;;;;;2.94;90.66;99077.09;5015404;28;20080;-82
2021/12/24 04:02:47;;;;;;;23.20;8.95;;;;;;;3.00;91.40;99079.28;5040963;28;20063;-81
2021/12/24 04:05:34;;;;;;;17.05;8.60;;;;;;;3.03;90.90;99072.06;5036856;28;20436;-81
2021/12/24 04:08:20;;;;;;;17.88;7.63;;;;;;;3.08;90.70;99073.50;5082290;28;20041;-81
2021/12/24 04:11:06;;;;;;;17.42;7.88;;;;;;;3.08;90.74;99081.38;5070834;28;20042;-82
2021/12/24 04:13:37;;;;;;;19.00;8.85;;;;;;;3.10;90.68;99079.47;5054791;28;20044;-81
2021/12/24 04:16:04;;;;;;;17.60;8.68;;;;;;;3.13;90.65;99081.88;5068464;28;20045;-81
2021/12/24 04:18:53;;;;;;;21.45;10.02;;;;;;;3.13;91.01;99077.50;5069282;28;20119;-81
2021/12/24 04:26:53;;;;;;;17.65;8.63;;;;;;;3.20;91.22;99077.88;5070606;28;20051;-81
2021/12/24 04:29:20;;;;;;;22.55;9.27;;;;;;;3.26;90.99;99077.47;5072951;28;20050;-81
2021/12/24 04:31:55;;;;;;;18.17;9.52;;;;;;;3.26;90.73;99083.56;5054644;28;20130;-81
2021/12/24 04:34:50;;;;;;;17.42;9.07;;;;;;;3.27;91.04;99076.50;5020495;28;20043;-81
2021/12/24 04:38:02;;;;;;;19.80;9.13;;;;;;;3.28;91.00;99090.47;5020645;28;20047;-82
2021/12/24 04:51:23;;;;;;;19.52;8.60;;;;;;;3.32;90.82;99089.31;5059433;28;20106;-82
2021/12/24 05:05:07;;;;;;;15.80;8.48;;;;;;;3.32;90.68;99078.81;5034920;28;20046;-81
2021/12/24 05:10:24;;;;;;;17.73;8.45;;;;;;;3.34;90.70;99085.63;4995434;28;20153;-82
2021/12/24 05:12:51;;;;;;;20.80;9.88;;;;;;;3.34;90.92;99071.69;5036717;28;20149;-81
2021/12/24 05:15:26;;;;;;;20.85;9.15;;;;;;;3.39;91.41;99080.06;5028717;28;20045;-82
2021/12/24 05:18:27;;;;;;;22.45;10.50;;;;;;;3.39;91.18;99080.91;5025910;28;20041;-81
2021/12/24 05:24:05;;;;;;;16.85;8.90;;;;;;;3.38;91.05;99089.69;4992325;28;20491;-81
2021/12/24 05:26:35;;;;;;;14.80;7.80;;;;;;;3.40;91.14;99090.44;5055625;28;20547;-81
2021/12/24 05:29:03;;;;;;;21.15;8.98;;;;;;;3.44;91.09;99099.78;5049564;28;20040;-81
2021/12/24 05:31:30;;;;;;;17.38;7.85;;;;;;;3.41;91.06;99089.50;5081186;28;20142;-81
2021/12/24 05:33:57;;;;;;;20.30;8.27;;;;;;;3.44;90.95;99088.44;5050391;28;20052;-81
2021/12/24 05:36:24;;;;;;;19.40;8.30;;;;;;;3.45;91.00;99087.50;5071706;28;20040;-81
2021/12/24 05:38:51;;;;;;;24.83;9.48;;;;;;;3.45;90.85;99092.75;5038424;28;20048;-81
2021/12/24 05:41:21;;;;;;;16.42;8.43;;;;;;;3.44;91.14;99081.41;5068128;28;20051;-81
2021/12/24 05:43:48;;;;;;;17.90;8.63;;;;;;;3.46;91.06;99082.16;5066219;28;20040;-81
2021/12/24 05:46:15;;;;;;;23.58;9.63;;;;;;;3.49;91.04;99083.72;5055087;28;20105;-81
2021/12/24 05:48:56;;;;;;;18.70;9.18;;;;;;;3.42;91.02;99088.56;5014896;28;20127;-81
2021/12/24 05:51:27;;;;;;;18.00;9.80;;;;;;;3.47;91.14;99086.44;5012870;28;21636;-81
2021/12/24 05:54:32;;;;;;;21.75;9.48;;;;;;;3.51;90.98;99089.69;5009524;28;20174;-81
2021/12/24 05:56:59;;;;;;;18.05;9.30;;;;;;;3.53;91.04;99098.28;5061315;28;20060;-82
2021/12/24 05:59:26;;;;;;;18.50;8.85;;;;;;;3.56;91.02;99100.72;5031993;28;20048;-81
2021/12/24 06:01:53;;;;;;;17.45;9.88;;;;;;;3.57;91.10;99099.75;5051257;28;20476;-81
2021/12/24 06:04:20;;;;;;;18.23;8.82;;;;;;;3.59;91.02;99102.28;5058648;28;20115;-82
2021/12/24 06:06:48;;;;;;;18.67;8.82;;;;;;;3.59;91.03;99102.28;5054329;28;20563;-81
2021/12/24 06:09:15;;;;;;;20.98;10.15;;;;;;;3.60;91.34;99099.53;5069778;28;20118;-82
2021/12/24 06:11:42;;;;;;;18.85;8.88;;;;;;;3.64;91.06;99108.88;5024156;28;20044;-82
2021/12/24 06:14:11;;;;;;;15.55;8.88;;;;;;;3.65;91.06;99107.06;5085121;28;20049;-81
2021/12/24 06:16:58;;;;;;;19.27;9.18;;;;;;;3.65;91.09;99105.28;5082690;28;20040;-81
2021/12/24 06:19:26;;;;;;;18.52;9.13;;;;;;;3.66;90.92;99093.84;5049234;28;20411;-81
2021/12/24 06:21:54;;;;;;;18.23;8.50;;;;;;;3.69;90.79;99087.53;5062714;28;20051;-81
2021/12/24 06:24:21;;;;;;;16.92;9.48;;;;;;;3.69;90.87;99092.78;5048906;28;20120;-81
2021/12/24 06:26:48;;;;;;;16.77;8.95;;;;;;;3.67;90.97;99092.06;5070972;28;20052;-81
2021/12/24 06:29:15;;;;;;;20.05;9.27;;;;;;;3.74;91.08;99097.69;5042345;28;20040;-81
2021/12/24 06:31:42;;;;;;;23.38;10.23;;;;;;;3.72;91.04;99096.97;5078964;28;20044;-81
2021/12/24 06:34:10;;;;;;;21.40;8.90;;;;;;;3.76;90.90;99106.31;5050503;28;20484;-81
2021/12/24 06:36:42;;;;;;;15.60;8.85;;;;;;;3.75;91.04;99107.25;5030256;28;20090;-81
2021/12/24 06:39:08;;;;;;;17.80;9.38;;;;;;;3.76;91.03;99098.41;5076450;28;20491;-82
2021/12/24 06:41:35;;;;;;;17.90;8.45;;;;;;;3.77;90.86;99097.50;5058136;28;20044;-81
2021/12/24 06:44:04;;;;;;;17.48;8.13;;;;;;;3.79;90.92;99087.69;5072646;28;20045;-81
2021/12/24 06:46:31;;;;;;;22.30;10.50;;;;;;;3.80;91.05;99079.72;5055338;28;20063;-81
2021/12/24 06:48:58;;;;;;;17.35;8.77;;;;;;;3.83;90.79;99086.53;5073396;28;20519;-81
2021/12/24 06:51:25;;;;;;;20.60;9.15;;;;;;;3.87;90.70;99091.47;5059502;28;20036;-80
2021/12/24 06:53:53;;;;;;;17.23;8.80;;;;;;;3.83;90.99;99091.78;5062775;28;20049;-81
2021/12/24 06:56:21;;;;;;;16.65;8.75;;;;;;;3.85;90.85;99084.63;5052537;28;20519;-81
2021/12/24 06:58:49;;;;;;;21.02;8.88;;;;;;;3.89;91.15;99088.69;5046607;28;20052;-80
2021/12/24 07:01:18;;;;;;;21.27;9.32;;;;;;;3.94;91.04;99097.09;5031796;28;20051;-80
2021/12/24 07:03:46;;;;;;;16.55;8.77;;;;;;;3.89;90.73;99091.31;5049639;28;20514;-81
2021/12/24 07:06:13;;;;;;;15.52;8.45;;;;;;;3.92;90.88;99083.25;5073396;28;20052;-80
2021/12/24 07:08:41;;;;;;;20.55;9.43;;;;;;;3.94;90.72;99093.63;5061406;28;20040;-80
2021/12/24 07:11:07;;;;;;;22.08;9.07;;;;;;;3.93;90.89;99105.91;5045022;28;20044;-80
2021/12/24 07:13:36;;;;;;;17.60;7.97;;;;;;;3.94;90.86;99093.63;5083702;28;20032;-80
2021/12/24 07:16:05;;;;;;;19.88;9.43;;;;;;;3.96;91.11;99091.72;5072950;28;20045;-80
2021/12/24 07:18:33;;;;;;;18.48;8.82;;;;;;;3.96;90.97;99087.31;5074231;28;20051;-80
2021/12/24 07:20:59;;;;;;;20.92;8.93;;;;;;;3.97;91.08;99081.13;5077283;28;20048;-82
2021/12/24 07:23:26;;;;;;;21.17;8.55;;;;;;;3.97;90.85;99080.25;5056531;28;20048;-80
2021/12/24 07:25:53;;;;;;;18.95;8.27;;;;;;;3.96;91.29;99082.06;5059645;28;20041;-81
2021/12/24 07:28:19;;;;;;;16.67;8.10;;;;;;;4.00;91.00;99080.06;5060390;28;20055;-80
2021/12/24 07:30:46;;;;;;;20.77;9.07;;;;;;;4.02;90.74;99084.25;5050545;28;20040;-80
2021/12/24 07:33:14;;;;;;;18.75;8.55;;;;;;;4.02;90.62;99089.50;5074439;28;20044;-84
2021/12/24 07:35:45;;;;;;;20.75;9.13;;;;;;;4.01;90.73;99076.47;5051229;28;22630;-81
2021/12/24 07:38:13;;;;;;;17.75;8.95;;;;;;;4.03;91.10;99092.97;5026685;28;20074;-83
2021/12/24 07:40:44;;;;;;;21.48;9.40;;;;;;;4.03;90.92;99103.47;5066352;28;20044;-81
2021/12/24 07:43:13;;;;;;;17.80;8.60;;;;;;;4.08;90.83;99098.72;5065810;28;20048;-81
2021/12/24 07:45:42;;;;;;;23.25;9.68;;;;;;;4.03;90.96;99101.66;5042807;28;20114;-81
2021/12/24 07:48:13;;;;;;;18.00;8.02;;;;;;;4.06;91.04;99097.97;5024150;28;20041;-81
2021/12/24 07:53:14;;;;;;;20.35;9.45;;;;;;;4.10;90.83;99096.81;5053349;28;20385;-81
2021/12/24 07:55:41;;;;;;;18.45;9.18;;;;;;;4.10;90.66;99092.41;5073468;28;20496;-81
2021/12/24 07:58:09;;;;;;;15.93;9.02;;;;;;;4.10;90.86;99089.78;5053529;28;20045;-81
2021/12/24 08:00:37;;;;;;;19.08;9.25;;;;;;;4.10;91.08;99097.66;5072927;28;20049;-81
2021/12/24 08:03:04;;;;;;;18.75;8.95;;;;;;;4.10;90.98;99088.94;5063572;28;20055;-82
2021/12/24 08:05:34;;;;;;;18.92;9.55;;;;;;;4.28;91.21;99097.25;5071898;28;20419;-80
2021/12/24 08:08:02;;;;;;;17.00;8.02;;;;;;;4.20;91.30;99086.44;5068484;28;20037;-80
2021/12/24 08:10:31;;;;;;;20.02;7.78;;;;;;;4.18;91.03;99096.25;5053175;28;20053;-80
2021/12/24 08:12:57;;;;;;;16.85;8.88;;;;;;;4.19;90.80;99092.66;5043505;28;20048;-80
2021/12/24 08:15:25;;;;;;;25.00;10.40;;;;;;;4.18;90.93;99080.50;5057274;28;20098;-80
2021/12/24 08:17:52;;;;;;;18.73;9.77;;;;;;;4.22;90.83;99074.03;5003609;28;20048;-80
2021/12/24 08:20:23;;;;;;;16.70;8.43;;;;;;;4.17;90.88;99063.88;5058576;28;20690;-80
2021/12/24 08:22:53;;;;;;;17.40;8.52;;;;;;;4.18;90.71;99067.34;5069224;28;20040;-81
2021/12/24 08:25:20;;;;;;;19.30;9.48;;;;;;;4.20;90.88;99078.56;5039645;28;20049;-81
2021/12/24 08:27:47;;;;;;;19.70;9.63;;;;;;;4.20;90.55;99073.31;5056164;28;20040;-81
2021/12/24 08:30:15;;;;;;;22.77;10.52;;;;;;;4.19;90.92;99069.84;5075652;28;20037;-80
2021/12/24 08:32:42;;;;;;;21.80;9.75;;;;;;;4.19;90.87;99069.84;5037395;28;20044;-81
2021/12/24 08:35:14;;;;;;;26.77;10.80;;;;;;;4.19;90.54;99071.63;5052256;28;20053;-82
2021/12/24 08:37:41;;;;;;;17.63;9.40;;;;;;;4.21;90.68;99072.38;5072864;28;20044;-80
2021/12/24 08:40:09;;;;;;;18.65;8.48;;;;;;;4.21;90.67;99062.69;5077595;28;20120;-82
2021/12/24 08:42:36;;;;;;;20.33;9.88;;;;;;;4.27;90.58;99066.66;5076438;28;20045;-81
2021/12/24 08:45:05;;;;;;;21.85;10.43;;;;;;;4.24;90.82;99067.72;5038360;28;20040;-82
2021/12/24 08:47:33;;;;;;;28.83;11.65;;;;;;;4.25;90.86;99063.28;5066489;28;20054;-82
2021/12/24 08:50:00;;;;;;;25.23;10.38;;;;;;;4.24;90.64;99066.88;5065487;28;20042;-80
2021/12/24 08:52:26;;;;;;;20.63;10.93;;;;;;;4.29;90.77;99073.47;5060833;28;20100;-80
2021/12/24 08:54:53;;;;;;;21.48;10.52;;;;;;;4.33;90.61;99072.28;5041467;28;20071;-80
2021/12/24 08:57:20;;;;;;;24.60;11.77;;;;;;;4.33;90.61;99074.91;5070951;28;20062;-80
2021/12/24 08:59:48;;;;;;;22.08;10.80;;;;;;;4.31;90.69;99074.19;5065423;28;20609;-80
2021/12/24 09:02:16;;;;;;;25.10;10.88;;;;;;;4.31;90.79;99070.72;5038038;28;20510;-80
2021/12/24 09:04:44;;;;;;;24.38;11.60;;;;;;;4.35;91.04;99082.66;5045502;28;20045;-80
2021/12/24 09:07:10;;;;;;;23.73;12.27;;;;;;;4.34;90.59;99071.31;5069829;28;20052;-80
2021/12/24 09:09:37;;;;;;;23.30;10.80;;;;;;;4.55;92.17;99070.66;5080962;28;20047;-80
2021/12/24 09:12:05;;;;;;;18.40;9.48;;;;;;;4.58;91.07;99073.09;5048186;28;20040;-80
2021/12/24 09:14:32;;;;;;;23.23;11.52;;;;;;;4.56;90.58;99078.44;5062370;28;20064;-80
2021/12/24 09:17:02;;;;;;;25.35;12.30;;;;;;;4.53;90.53;99073.44;5038080;28;20049;-79
2021/12/24 09:19:30;;;;;;;21.45;11.20;;;;;;;4.49;90.66;99065.88;5058969;28;20441;-82
2021/12/24 09:21:58;;;;;;;24.42;11.68;;;;;;;4.53;90.74;99078.69;5050069;28;20052;-81
2021/12/24 09:24:26;;;;;;;17.98;9.32;;;;;;;4.49;90.55;99081.66;5062274;28;20066;-81
2021/12/24 09:26:57;;;;;;;20.42;10.48;;;;;;;4.52;90.45;99081.41;5046125;28;20051;-82
2021/12/24 09:29:25;;;;;;;20.15;9.65;;;;;;;4.49;90.83;99079.03;5049587;28;20102;-83
2021/12/24 09:31:55;;;;;;;22.88;11.30;;;;;;;4.50;90.72;99075.44;5049714;28;20141;-82
2021/12/24 09:34:23;;;;;;;22.80;10.48;;;;;;;4.50;90.73;99085.94;5024009;28;20044;-84
2021/12/24 09:36:50;;;;;;;24.90;10.57;;;;;;;4.51;90.88;99083.22;5050126;28;20076;-84
2021/12/24 09:39:17;;;;;;;22.27;9.57;;;;;;;4.51;90.85;99087.63;5062278;28;20048;-84
2021/12/24 09:41:44;;;;;;;17.45;8.82;;;;;;;4.55;90.80;99083.81;5046225;28;20037;-82
2021/12/24 09:44:12;;;;;;;18.88;8.48;;;;;;;4.54;90.90;99076.88;5061612;28;20045;-82
2021/12/24 09:46:42;;;;;;;18.05;8.13;;;;;;;4.54;90.51;99079.50;5077449;28;20186;-81
2021/12/24 09:49:10;;;;;;;16.75;8.73;;;;;;;4.54;90.75;99072.47;5076179;28;20732;-81
2021/12/24 09:51:38;;;;;;;17.45;8.82;;;;;;;4.54;90.87;99069.00;5028874;28;20101;-82
2021/12/24 09:54:10;;;;;;;22.25;10.43;;;;;;;4.55;90.71;99063.63;5087634;28;20502;-82
2021/12/24 09:56:37;;;;;;;29.05;12.88;;;;;;;4.55;90.81;99057.50;5032990;28;20052;-82
2021/12/24 09:59:04;;;;;;;31.08;14.52;;;;;;;4.59;90.85;99063.41;5070219;28;20087;-80
2021/12/24 10:01:42;;;;;;;26.27;13.40;;;;;;;4.55;90.41;99062.78;5074065;28;20051;-81
2021/12/24 10:04:14;;;;;;;24.67;12.27;;;;;;;4.60;90.56;99065.06;5026256;28;20040;-81
2021/12/24 10:06:59;;;;;;;30.38;12.45;;;;;;;4.55;90.47;99071.53;5061214;28;20067;-82
2021/12/24 10:09:32;;;;;;;30.83;13.32;;;;;;;4.59;90.45;99066.84;5007381;28;20048;-82
2021/12/24 10:12:00;;;;;;;;;;;;;;;4.45;90.59;99067.06;5066495;28;20044;-83
2021/12/24 10:14:36;;;;;;;32.15;15.23;;;;;;;4.58;90.62;99062.56;5061704;28;20457;-80
2021/12/24 10:17:05;;;;;;;29.00;13.25;;;;;;;4.62;90.86;99065.78;5041524;28;20037;-82
2021/12/24 10:19:53;;;;;;;21.23;9.82;;;;;;;4.54;90.85;99071.63;5065110;28;20064;-83
2021/12/24 10:22:45;;;;;;;22.75;9.85;;;;;;;4.59;90.65;99069.50;5057998;28;20496;-81
2021/12/24 10:25:13;;;;;;;18.92;8.50;;;;;;;4.63;90.78;99056.94;5064723;28;20040;-82
2021/12/24 10:27:42;;;;;;;17.88;8.63;;;;;;;4.67;90.80;99061.84;5062617;28;20145;-80
2021/12/24 10:30:26;;;;;;;16.38;8.90;;;;;;;4.63;90.72;99052.53;5056738;28;20396;-80
2021/12/24 10:32:56;;;;;;;17.30;8.98;;;;;;;4.67;90.68;99040.81;5043275;28;20396;-81
2021/12/24 10:35:30;;;;;;;17.33;9.57;;;;;;;4.65;90.36;99045.34;5050510;28;20036;-81
2021/12/24 10:38:10;;;;;;;19.10;9.73;;;;;;;4.65;90.65;99034.00;5048442;28;20036;-82
2021/12/24 10:40:54;;;;;;;20.73;10.38;;;;;;;4.63;90.88;99025.38;5067109;28;20041;-81
2021/12/24 10:43:33;;;;;;;27.42;13.02;;;;;;;4.67;90.58;99027.66;5001362;28;20045;-81
2021/12/24 10:46:15;;;;;;;28.60;12.02;;;;;;;4.66;90.73;99028.63;5007731;28;20049;-81
2021/12/24 10:49:08;;;;;;;27.10;11.25;;;;;;;4.70;90.81;99039.72;4977260;28;20053;-81
2021/12/24 10:51:54;;;;;;;;;;;;;;;4.60;90.77;99026.44;5021668;28;20045;-81
2021/12/24 10:54:30;;;;;;;20.85;10.48;;;;;;;4.69;90.97;99028.38;5015624;28;19921;-81
2021/12/24 10:57:16;;;;;;;25.23;13.00;;;;;;;4.69;90.64;99017.88;5012767;28;20512;-82
2021/12/24 10:59:48;;;;;;;23.25;11.90;;;;;;;4.81;90.96;99012.59;5012321;28;20704;-81
2021/12/24 11:02:14;;;;;;;24.90;11.48;;;;;;;4.84;90.84;99015.00;4985946;28;20536;-82
2021/12/24 11:04:41;;;;;;;24.13;11.55;;;;;;;4.88;90.93;99019.06;5024438;28;20045;-82
2021/12/24 11:07:31;;;;;;;24.33;12.15;;;;;;;4.78;90.72;99016.31;5028567;28;20048;-81
2021/12/24 11:10:13;;;;;;;28.88;14.07;;;;;;;4.81;90.63;99007.34;4997157;28;20056;-81
2021/12/24 11:12:46;;;;;;;31.05;19.45;;;;;;;4.83;90.93;99011.53;5003175;28;20778;-81
2021/12/24 11:15:41;;;;;;;27.60;14.30;;;;;;;4.81;90.82;99013.47;5041092;28;20105;-81
2021/12/24 11:18:39;;;;;;;23.92;12.82;;;;;;;4.79;90.64;99008.31;5010388;28;20114;-81
2021/12/24 11:21:08;;;;;;;23.75;11.77;;;;;;;4.91;90.91;99005.66;5028551;28;20888;-83
2021/12/24 11:23:37;;;;;;;24.80;12.82;;;;;;;4.95;90.86;98996.59;5062746;28;20480;-81
2021/12/24 11:26:09;;;;;;;25.38;13.00;;;;;;;4.93;90.97;99006.38;5066331;28;20505;-80
2021/12/24 11:28:37;;;;;;;25.67;13.30;;;;;;;5.00;91.03;99008.41;5037884;28;20045;-81
2021/12/24 11:31:11;;;;;;;23.20;11.38;;;;;;;5.04;90.77;99006.41;5049531;28;20045;-81
2021/12/24 11:33:42;;;;;;;22.65;12.15;;;;;;;4.99;90.89;99003.28;5007321;28;20078;-82
2021/12/24 11:36:11;;;;;;;26.63;12.57;;;;;;;5.10;91.35;98997.19;5047924;28;20141;-82
2021/12/24 11:38:43;;;;;;;21.92;11.82;;;;;;;4.99;91.14;98996.22;5037110;28;22660;-81
2021/12/24 11:41:12;;;;;;;19.15;10.77;;;;;;;5.00;91.25;98984.72;5029219;28;20052;-81
2021/12/24 11:43:43;;;;;;;27.70;12.50;;;;;;;5.04;91.06;98987.13;5041379;28;20053;-82
2021/12/24 11:46:12;;;;;;;23.92;12.43;;;;;;;5.04;91.04;98989.75;5023745;28;20053;-83
2021/12/24 11:48:39;;;;;;;23.40;12.07;;;;;;;5.10;91.15;98974.31;5025340;28;20131;-82
2021/12/24 11:51:21;;;;;;;21.50;11.63;;;;;;;4.98;90.83;98970.84;4998374;28;20462;-83
2021/12/24 11:54:14;;;;;;;28.48;12.95;;;;;;;4.95;90.93;98968.47;5009568;28;20047;-83
2021/12/24 11:56:48;;;;;;;24.08;13.18;;;;;;;5.05;91.16;98973.03;4990462;28;20060;-84
2021/12/24 11:59:16;;;;;;;26.98;14.35;;;;;;;5.05;90.95;98968.59;5058467;28;20044;-83
2021/12/24 12:01:44;;;;;;;28.95;16.15;;;;;;;5.10;91.02;98976.13;5068281;28;20055;-83
2021/12/24 12:04:14;;;;;;;29.20;15.65;;;;;;;5.11;91.06;98975.16;5083811;28;21667;-84
2021/12/24 12:06:41;;;;;;;28.30;14.70;;;;;;;5.13;91.14;98967.97;5051947;28;20491;-83
2021/12/24 12:09:11;;;;;;;24.90;13.57;;;;;;;5.18;90.96;98964.00;5068075;28;20059;-83
2021/12/24 12:11:41;;;;;;;23.92;13.93;;;;;;;5.14;91.32;98959.09;5078707;28;20795;-83
2021/12/24 12:14:17;;;;;;;22.35;13.02;;;;;;;5.11;91.12;98954.94;5065523;28;20044;-82
2021/12/24 12:16:56;;;;;;;23.77;12.80;;;;;;;5.11;91.02;98954.09;5059686;28;20105;-85
2021/12/24 12:19:48;;;;;;;23.20;14.02;;;;;;;5.16;91.15;98952.75;5035363;28;20131;-81
2021/12/24 12:22:44;;;;;;;23.13;13.25;;;;;;;5.14;91.35;98946.81;5021721;28;20036;-81
2021/12/24 12:25:14;;;;;;;27.25;13.90;;;;;;;5.17;91.35;98949.19;5004396;28;20032;-82
2021/12/24 12:27:44;;;;;;;24.48;13.27;;;;;;;5.19;91.33;98949.06;5072452;28;20056;-82
2021/12/24 12:30:16;;;;;;;27.90;13.38;;;;;;;5.19;91.32;98949.06;5080477;28;20051;-81
2021/12/24 12:32:43;;;;;;;24.50;14.10;;;;;;;5.22;91.57;98962.00;5078468;28;20403;-81
2021/12/24 12:35:12;;;;;;;24.90;14.18;;;;;;;5.26;91.75;98965.19;5078483;28;20101;-82
2021/12/24 12:37:44;;;;;;;23.73;13.88;;;;;;;5.23;91.28;98953.94;5045677;28;20036;-81
2021/12/24 12:40:16;;;;;;;26.55;13.93;;;;;;;5.28;91.30;98942.22;5078770;28;20443;-82
2021/12/24 12:42:54;;;;;;;37.17;21.83;;;;;;;5.22;91.20;98939.13;5041967;28;20061;-82
2021/12/24 12:45:26;;;;;;;29.63;17.35;;;;;;;5.22;91.67;98941.75;5045248;28;20040;-81
2021/12/24 12:47:55;;;;;;;27.17;17.08;;;;;;;5.29;91.58;98943.88;5072988;28;20049;-82
2021/12/24 12:50:23;;;;;;;24.40;15.25;;;;;;;5.30;91.63;98938.50;5046468;28;20045;-82
2021/12/24 12:52:53;;;;;;;23.10;13.77;;;;;;;5.34;91.15;98926.78;5077470;28;20565;-84
2021/12/24 12:55:36;;;;;;;19.35;12.80;;;;;;;5.28;91.12;98936.97;5060121;28;20491;-83
2021/12/24 12:58:23;;;;;;;18.90;11.55;;;;;;;5.26;91.33;98936.25;5050553;28;20101;-82
2021/12/24 13:01:06;;;;;;;21.42;12.15;;;;;;;5.27;91.40;98935.31;5030299;28;20044;-82
2021/12/24 13:03:57;;;;;;;19.40;12.13;;;;;;;5.27;91.32;98930.03;5050378;28;20036;-82
2021/12/24 13:06:46;;;;;;;20.23;11.48;;;;;;;5.36;91.57;98932.72;5056506;28;20044;-82
2021/12/24 13:09:21;;;;;;;22.17;11.80;;;;;;;5.35;91.42;98927.63;5029508;28;20052;-82
2021/12/24 13:11:54;;;;;;;20.85;10.70;;;;;;;5.36;91.50;98924.00;5018336;28;20048;-82
2021/12/24 13:14:24;;;;;;;18.02;11.18;;;;;;;5.38;91.53;98917.66;5072822;28;20442;-82
2021/12/24 13:17:16;;;;;;;15.32;11.07;;;;;;;5.38;91.43;98919.47;5058809;28;20040;-82
2021/12/24 13:22:32;;;;;;;18.80;10.00;;;;;;;5.41;91.47;98914.75;5067980;28;20056;-81
2021/12/24 13:25:06;;;;;;;21.95;11.82;;;;;;;5.46;91.43;98916.19;5047994;28;20044;-82
2021/12/24 13:27:39;;;;;;;18.20;10.40;;;;;;;5.47;91.84;98917.84;5035105;28;20105;-82
2021/12/24 13:30:16;;;;;;;21.63;10.32;;;;;;;5.44;91.38;98921.56;5085938;28;20052;-81